sensor_id;sensor_type;location;lat;lon;timestamp;pressure;altitude;pressure_sealevel;temperature;humidity
47530;BME280;33272;51.922;7.730;2023-03-03T00:01:33;142980.19;;;1.91;100.00
47530;BME280;33272;51.922;7.730;2023-03-03T00:04:00;142978.94;;;1.90;100.00
47530;BME280;33272;51.922;7.730;2023-03-03T00:06:27;142990.22;;;1.95;100.00
47530;BME280;33272;51.922;7.730;2023-03-03T00:08:55;143002.81;;;2.00;100.00
47530;BME280;33272;51.922;7.730;2023-03-03T00:11:24;143004.06;;;2.00;100.00
47530;BME280;33272;51.922;7.730;2023-03-03T00:13:54;143007.88;;;2.02;100.00
47530;BME280;33272;51.922;7.730;2023-03-03T00:16:24;143006.59;;;2.01;100.00
47530;BME280;33272;51.922;7.730;2023-03-03T00:18:52;143009.13;;;2.02;100.00
47530;BME280;33272;51.922;7.730;2023-03-03T00:21:29;143011.63;;;2.03;100.00
47530;BME280;33272;51.922;7.730;2023-03-03T00:24:18;143010.38;;;2.03;100.00
47530;BME280;33272;51.922;7.730;2023-03-03T00:26:48;143015.44;;;2.05;100.00
47530;BME280;33272;51.922;7.730;2023-03-03T00:29:35;143019.19;;;2.06;100.00
47530;BME280;33272;51.922;7.730;2023-03-03T00:32:23;143020.44;;;2.07;100.00
47530;BME280;33272;51.922;7.730;2023-03-03T00:34:51;143026.72;;;2.09;100.00
47530;BME280;33272;51.922;7.730;2023-03-03T00:37:30;143019.19;;;2.06;100.00
47530;BME280;33272;51.922;7.730;2023-03-03T00:40:20;143026.72;;;2.09;100.00
47530;BME280;33272;51.922;7.730;2023-03-03T00:42:52;143033.03;;;2.12;100.00
47530;BME280;33272;51.922;7.730;2023-03-03T00:45:30;143026.72;;;2.09;100.00
47530;BME280;33272;51.922;7.730;2023-03-03T00:48:20;143031.78;;;2.12;100.00
47530;BME280;33272;51.922;7.730;2023-03-03T00:50:48;143034.28;;;2.13;100.00
47530;BME280;33272;51.922;7.730;2023-03-03T00:53:17;143036.78;;;2.14;100.00
47530;BME280;33272;51.922;7.730;2023-03-03T00:55:46;143045.56;;;2.17;100.00
47530;BME280;33272;51.922;7.730;2023-03-03T00:58:15;143050.63;;;2.19;100.00
47530;BME280;33272;51.922;7.730;2023-03-03T01:00:43;143058.19;;;2.22;100.00
47530;BME280;33272;51.922;7.730;2023-03-03T01:03:13;143058.19;;;2.22;100.00
47530;BME280;33272;51.922;7.730;2023-03-03T01:05:41;143056.94;;;2.22;100.00
47530;BME280;33272;51.922;7.730;2023-03-03T01:08:08;143049.38;;;2.19;100.00
47530;BME280;33272;51.922;7.730;2023-03-03T01:10:38;143040.56;;;2.15;100.00
47530;BME280;33272;51.922;7.730;2023-03-03T01:13:07;143038.03;;;2.14;100.00
47530;BME280;33272;51.922;7.730;2023-03-03T01:15:37;143035.53;;;2.13;100.00
47530;BME280;33272;51.922;7.730;2023-03-03T01:18:05;143033.03;;;2.12;100.00
47530;BME280;33272;51.922;7.730;2023-03-03T01:20:32;143036.78;;;2.14;100.00
47530;BME280;33272;51.922;7.730;2023-03-03T01:23:00;143038.03;;;2.14;100.00
47530;BME280;33272;51.922;7.730;2023-03-03T01:25:27;143026.72;;;2.09;100.00
47530;BME280;33272;51.922;7.730;2023-03-03T01:27:54;143027.97;;;2.10;100.00
47530;BME280;33272;51.922;7.730;2023-03-03T01:30:21;143026.72;;;2.09;100.00
47530;BME280;33272;51.922;7.730;2023-03-03T01:32:49;143017.94;;;2.06;100.00
47530;BME280;33272;51.922;7.730;2023-03-03T01:35:17;143006.59;;;2.01;100.00
47530;BME280;33272;51.922;7.730;2023-03-03T01:37:45;143015.44;;;2.05;100.00
47530;BME280;33272;51.922;7.730;2023-03-03T01:40:15;143020.44;;;2.07;100.00
47530;BME280;33272;51.922;7.730;2023-03-03T01:42:42;143012.88;;;2.04;100.00
47530;BME280;33272;51.922;7.730;2023-03-03T01:45:18;143015.44;;;2.05;100.00
47530;BME280;33272;51.922;7.730;2023-03-03T01:47:53;143012.88;;;2.04;100.00
47530;BME280;33272;51.922;7.730;2023-03-03T01:50:39;143019.19;;;2.06;100.00
47530;BME280;33272;51.922;7.730;2023-03-03T01:53:13;143020.44;;;2.07;100.00
47530;BME280;33272;51.922;7.730;2023-03-03T01:55:42;143024.22;;;2.08;100.00
47530;BME280;33272;51.922;7.730;2023-03-03T01:58:13;143026.72;;;2.09;100.00
47530;BME280;33272;51.922;7.730;2023-03-03T02:00:45;143036.78;;;2.14;100.00
47530;BME280;33272;51.922;7.730;2023-03-03T02:03:18;143027.97;;;2.10;100.00
47530;BME280;33272;51.922;7.730;2023-03-03T02:05:46;143029.22;;;2.11;100.00
47530;BME280;33272;51.922;7.730;2023-03-03T02:08:19;143033.03;;;2.12;100.00
47530;BME280;33272;51.922;7.730;2023-03-03T02:10:48;143040.56;;;2.15;100.00
47530;BME280;33272;51.922;7.730;2023-03-03T02:13:16;143038.03;;;2.14;100.00
47530;BME280;33272;51.922;7.730;2023-03-03T02:15:43;143029.22;;;2.11;100.00
47530;BME280;33272;51.922;7.730;2023-03-03T02:18:12;143040.56;;;2.15;100.00
47530;BME280;33272;51.922;7.730;2023-03-03T02:20:54;143031.78;;;2.12;100.00
47530;BME280;33272;51.922;7.730;2023-03-03T02:23:28;143025.47;;;2.09;100.00
47530;BME280;33272;51.922;7.730;2023-03-03T02:26:06;143033.03;;;2.12;100.00
47530;BME280;33272;51.922;7.730;2023-03-03T02:28:35;143041.81;;;2.16;100.00
47530;BME280;33272;51.922;7.730;2023-03-03T02:31:06;143043.06;;;2.16;100.00
47530;BME280;33272;51.922;7.730;2023-03-03T02:33:35;143046.88;;;2.18;100.00
47530;BME280;33272;51.922;7.730;2023-03-03T02:36:03;143056.94;;;2.22;100.00
47530;BME280;33272;51.922;7.730;2023-03-03T02:38:35;143058.19;;;2.22;100.00
47530;BME280;33272;51.922;7.730;2023-03-03T02:41:12;143059.44;;;2.23;100.00
47530;BME280;33272;51.922;7.730;2023-03-03T02:43:49;143058.19;;;2.22;100.00
47530;BME280;33272;51.922;7.730;2023-03-03T02:46:18;143060.69;;;2.23;100.00
47530;BME280;33272;51.922;7.730;2023-03-03T02:48:45;143059.44;;;2.23;100.00
47530;BME280;33272;51.922;7.730;2023-03-03T02:51:13;143061.97;;;2.24;100.00
47530;BME280;33272;51.922;7.730;2023-03-03T02:53:40;143063.22;;;2.24;100.00
47530;BME280;33272;51.922;7.730;2023-03-03T02:56:08;143065.72;;;2.25;100.00
47530;BME280;33272;51.922;7.730;2023-03-03T02:58:36;143064.47;;;2.25;100.00
47530;BME280;33272;51.922;7.730;2023-03-03T03:01:04;143069.47;;;2.27;100.00
47530;BME280;33272;51.922;7.730;2023-03-03T03:03:31;143072.03;;;2.28;100.00
47530;BME280;33272;51.922;7.730;2023-03-03T03:05:58;143083.31;;;2.32;100.00
47530;BME280;33272;51.922;7.730;2023-03-03T03:08:25;143089.63;;;2.35;100.00
47530;BME280;33272;51.922;7.730;2023-03-03T03:10:52;143084.56;;;2.33;100.00
47530;BME280;33272;51.922;7.730;2023-03-03T03:13:23;143090.88;;;2.36;100.00
47530;BME280;33272;51.922;7.730;2023-03-03T03:15:51;143097.19;;;2.38;100.00
47530;BME280;33272;51.922;7.730;2023-03-03T03:18:18;143099.69;;;2.39;100.00
47530;BME280;33272;51.922;7.730;2023-03-03T03:20:45;143103.47;;;2.41;100.00
47530;BME280;33272;51.922;7.730;2023-03-03T03:23:12;143109.78;;;2.43;100.00
47530;BME280;33272;51.922;7.730;2023-03-03T03:25:39;143104.72;;;2.41;100.00
47530;BME280;33272;51.922;7.730;2023-03-03T03:28:10;143095.94;;;2.38;100.00
47530;BME280;33272;51.922;7.730;2023-03-03T03:30:39;143093.44;;;2.37;100.00
47530;BME280;33272;51.922;7.730;2023-03-03T03:33:07;143090.88;;;2.36;100.00
47530;BME280;33272;51.922;7.730;2023-03-03T03:35:35;143089.63;;;2.35;100.00
47530;BME280;33272;51.922;7.730;2023-03-03T03:38:03;143084.56;;;2.33;100.00
47530;BME280;33272;51.922;7.730;2023-03-03T03:40:30;143082.06;;;2.32;100.00
47530;BME280;33272;51.922;7.730;2023-03-03T03:42:57;143075.78;;;2.29;100.00
47530;BME280;33272;51.922;7.730;2023-03-03T03:45:24;143074.53;;;2.29;100.00
47530;BME280;33272;51.922;7.730;2023-03-03T03:47:52;143077.03;;;2.30;100.00
47530;BME280;33272;51.922;7.730;2023-03-03T03:50:19;143074.53;;;2.29;100.00
47530;BME280;33272;51.922;7.730;2023-03-03T03:52:47;143066.97;;;2.26;100.00
47530;BME280;33272;51.922;7.730;2023-03-03T03:55:14;143073.28;;;2.28;100.00
47530;BME280;33272;51.922;7.730;2023-03-03T03:57:41;143073.28;;;2.28;100.00
47530;BME280;33272;51.922;7.730;2023-03-03T04:00:11;143073.28;;;2.28;100.00
47530;BME280;33272;51.922;7.730;2023-03-03T04:02:38;143065.72;;;2.25;100.00
47530;BME280;33272;51.922;7.730;2023-03-03T04:05:07;143065.72;;;2.25;100.00
47530;BME280;33272;51.922;7.730;2023-03-03T04:07:34;143070.78;;;2.27;100.00
47530;BME280;33272;51.922;7.730;2023-03-03T04:10:02;143072.03;;;2.28;100.00
47530;BME280;33272;51.922;7.730;2023-03-03T04:12:29;143075.78;;;2.29;100.00
47530;BME280;33272;51.922;7.730;2023-03-03T04:15:00;143069.47;;;2.27;100.00
47530;BME280;33272;51.922;7.730;2023-03-03T04:17:27;143064.47;;;2.25;100.00
47530;BME280;33272;51.922;7.730;2023-03-03T04:19:54;143065.72;;;2.25;100.00
47530;BME280;33272;51.922;7.730;2023-03-03T04:22:23;143063.22;;;2.24;100.00
47530;BME280;33272;51.922;7.730;2023-03-03T04:24:50;143064.47;;;2.25;100.00
47530;BME280;33272;51.922;7.730;2023-03-03T04:27:17;143061.97;;;2.24;100.00
47530;BME280;33272;51.922;7.730;2023-03-03T04:29:44;143059.44;;;2.23;100.00
47530;BME280;33272;51.922;7.730;2023-03-03T04:32:11;143054.44;;;2.21;100.00
47530;BME280;33272;51.922;7.730;2023-03-03T04:34:38;143049.38;;;2.19;100.00
47530;BME280;33272;51.922;7.730;2023-03-03T04:37:05;143046.88;;;2.18;100.00
47530;BME280;33272;51.922;7.730;2023-03-03T04:39:34;143043.06;;;2.16;100.00
47530;BME280;33272;51.922;7.730;2023-03-03T04:42:01;143039.31;;;2.15;100.00
47530;BME280;33272;51.922;7.730;2023-03-03T04:44:28;143035.53;;;2.13;100.00
47530;BME280;33272;51.922;7.730;2023-03-03T04:46:55;143024.22;;;2.08;100.00
47530;BME280;33272;51.922;7.730;2023-03-03T04:49:22;143019.19;;;2.06;100.00
47530;BME280;33272;51.922;7.730;2023-03-03T04:51:49;143016.69;;;2.05;100.00
47530;BME280;33272;51.922;7.730;2023-03-03T04:54:16;143021.69;;;2.07;100.00
47530;BME280;33272;51.922;7.730;2023-03-03T04:56:44;143014.13;;;2.04;100.00
47530;BME280;33272;51.922;7.730;2023-03-03T04:59:12;143009.13;;;2.02;100.00
47530;BME280;33272;51.922;7.730;2023-03-03T05:01:40;142997.78;;;1.98;100.00
47530;BME280;33272;51.922;7.730;2023-03-03T05:04:07;142992.78;;;1.96;100.00
47530;BME280;33272;51.922;7.730;2023-03-03T05:06:34;142985.22;;;1.93;100.00
47530;BME280;33272;51.922;7.730;2023-03-03T05:09:01;142980.19;;;1.91;100.00
47530;BME280;33272;51.922;7.730;2023-03-03T05:11:28;142978.94;;;1.90;100.00
47530;BME280;33272;51.922;7.730;2023-03-03T05:13:58;142975.13;;;1.89;100.00
47530;BME280;33272;51.922;7.730;2023-03-03T05:16:25;142971.38;;;1.87;100.00
47530;BME280;33272;51.922;7.730;2023-03-03T05:18:52;142966.34;;;1.85;100.00
47530;BME280;33272;51.922;7.730;2023-03-03T05:21:19;142968.88;;;1.86;100.00
47530;BME280;33272;51.922;7.730;2023-03-03T05:23:46;142961.34;;;1.83;100.00
47530;BME280;33272;51.922;7.730;2023-03-03T05:26:13;142966.34;;;1.85;100.00
47530;BME280;33272;51.922;7.730;2023-03-03T05:28:40;142965.09;;;1.84;100.00
47530;BME280;33272;51.922;7.730;2023-03-03T05:31:08;142958.78;;;1.82;100.00
47530;BME280;33272;51.922;7.730;2023-03-03T05:33:37;142962.59;;;1.83;100.00
47530;BME280;33272;51.922;7.730;2023-03-03T05:36:04;142966.34;;;1.85;100.00
47530;BME280;33272;51.922;7.730;2023-03-03T05:38:31;142956.28;;;1.81;100.00
47530;BME280;33272;51.922;7.730;2023-03-03T05:40:58;142960.03;;;1.82;100.00
47530;BME280;33272;51.922;7.730;2023-03-03T05:43:25;142966.34;;;1.85;100.00
47530;BME280;33272;51.922;7.730;2023-03-03T05:45:54;142972.63;;;1.88;100.00
47530;BME280;33272;51.922;7.730;2023-03-03T05:48:23;142973.88;;;1.88;100.00
47530;BME280;33272;51.922;7.730;2023-03-03T05:50:50;142971.38;;;1.87;100.00
47530;BME280;33272;51.922;7.730;2023-03-03T05:53:17;142960.03;;;1.82;100.00
47530;BME280;33272;51.922;7.730;2023-03-03T05:55:44;142953.78;;;1.80;100.00
47530;BME280;33272;51.922;7.730;2023-03-03T05:58:11;142950.00;;;1.78;100.00
47530;BME280;33272;51.922;7.730;2023-03-03T06:00:38;142951.25;;;1.79;100.00
47530;BME280;33272;51.922;7.730;2023-03-03T06:03:05;142947.50;;;1.77;100.00
47530;BME280;33272;51.922;7.730;2023-03-03T06:05:34;142939.94;;;1.74;100.00
47530;BME280;33272;51.922;7.730;2023-03-03T06:08:01;142936.16;;;1.73;100.00
47530;BME280;33272;51.922;7.730;2023-03-03T06:10:28;142931.16;;;1.71;100.00
47530;BME280;33272;51.922;7.730;2023-03-03T06:12:55;142924.84;;;1.68;100.00
47530;BME280;33272;51.922;7.730;2023-03-03T06:15:23;142924.84;;;1.68;100.00
47530;BME280;33272;51.922;7.730;2023-03-03T06:17:50;142922.34;;;1.67;100.00
47530;BME280;33272;51.922;7.730;2023-03-03T06:20:17;142919.81;;;1.66;100.00
47530;BME280;33272;51.922;7.730;2023-03-03T06:22:46;142911.00;;;1.62;100.00
47530;BME280;33272;51.922;7.730;2023-03-03T06:25:13;142904.72;;;1.60;100.00
47530;BME280;33272;51.922;7.730;2023-03-03T06:27:40;142893.41;;;1.55;100.00
47530;BME280;33272;51.922;7.730;2023-03-03T06:30:09;142897.16;;;1.57;100.00
47530;BME280;33272;51.922;7.730;2023-03-03T06:32:37;142889.63;;;1.54;100.00
47530;BME280;33272;51.922;7.730;2023-03-03T06:35:05;142889.63;;;1.54;100.00
47530;BME280;33272;51.922;7.730;2023-03-03T06:37:32;142892.16;;;1.55;100.00
47530;BME280;33272;51.922;7.730;2023-03-03T06:40:01;142894.66;;;1.56;100.00
47530;BME280;33272;51.922;7.730;2023-03-03T06:42:28;142893.41;;;1.55;100.00
47530;BME280;33272;51.922;7.730;2023-03-03T06:44:55;142887.13;;;1.53;100.00
47530;BME280;33272;51.922;7.730;2023-03-03T06:47:22;142888.38;;;1.53;100.00
47530;BME280;33272;51.922;7.730;2023-03-03T06:49:49;142894.66;;;1.56;100.00
47530;BME280;33272;51.922;7.730;2023-03-03T06:52:21;142895.91;;;1.56;100.00
47530;BME280;33272;51.922;7.730;2023-03-03T06:54:49;142889.63;;;1.54;100.00
47530;BME280;33272;51.922;7.730;2023-03-03T06:57:25;142898.41;;;1.57;100.00
47530;BME280;33272;51.922;7.730;2023-03-03T06:59:54;142903.47;;;1.59;100.00
47530;BME280;33272;51.922;7.730;2023-03-03T07:02:22;142911.00;;;1.62;100.00
47530;BME280;33272;51.922;7.730;2023-03-03T07:04:49;142909.75;;;1.62;100.00
47530;BME280;33272;51.922;7.730;2023-03-03T07:07:20;142914.81;;;1.64;100.00
47530;BME280;33272;51.922;7.730;2023-03-03T07:09:50;142917.31;;;1.65;100.00
47530;BME280;33272;51.922;7.730;2023-03-03T07:12:20;142917.31;;;1.65;100.00
47530;BME280;33272;51.922;7.730;2023-03-03T07:14:51;142926.09;;;1.69;100.00
47530;BME280;33272;51.922;7.730;2023-03-03T07:17:23;142937.41;;;1.73;100.00
47530;BME280;33272;51.922;7.730;2023-03-03T07:19:51;142955.03;;;1.80;100.00
47530;BME280;33272;51.922;7.730;2023-03-03T07:22:20;142967.59;;;1.85;100.00
47530;BME280;33272;51.922;7.730;2023-03-03T07:24:50;142968.88;;;1.86;100.00
47530;BME280;33272;51.922;7.730;2023-03-03T07:27:23;142971.38;;;1.87;100.00
47530;BME280;33272;51.922;7.730;2023-03-03T07:29:53;142970.13;;;1.87;100.00
47530;BME280;33272;51.922;7.730;2023-03-03T07:32:33;142967.59;;;1.85;100.00
47530;BME280;33272;51.922;7.730;2023-03-03T07:35:24;142960.03;;;1.82;100.00
47530;BME280;33272;51.922;7.730;2023-03-03T07:37:54;142963.84;;;1.84;100.00
47530;BME280;33272;51.922;7.730;2023-03-03T07:40:34;142966.34;;;1.85;100.00
47530;BME280;33272;51.922;7.730;2023-03-03T07:43:27;142967.59;;;1.85;100.00
47530;BME280;33272;51.922;7.730;2023-03-03T07:46:01;142973.88;;;1.88;100.00
47530;BME280;33272;51.922;7.730;2023-03-03T07:48:33;142983.94;;;1.92;100.00
47530;BME280;33272;51.922;7.730;2023-03-03T07:51:11;142987.72;;;1.94;100.00
47530;BME280;33272;51.922;7.730;2023-03-03T07:53:39;142999.03;;;1.98;100.00
47530;BME280;33272;51.922;7.730;2023-03-03T07:56:26;143000.34;;;1.99;100.00
47530;BME280;33272;51.922;7.730;2023-03-03T07:58:56;142994.03;;;1.96;100.00
47530;BME280;33272;51.922;7.730;2023-03-03T08:01:36;142991.47;;;1.95;100.00
47530;BME280;33272;51.922;7.730;2023-03-03T08:04:16;142996.53;;;1.97;100.00
47530;BME280;33272;51.922;7.730;2023-03-03T08:06:52;143006.59;;;2.01;100.00
47530;BME280;33272;51.922;7.730;2023-03-03T08:12:35;143043.06;;;2.16;100.00
47530;BME280;33272;51.922;7.730;2023-03-03T08:15:23;143053.13;;;2.20;100.00
47530;BME280;33272;51.922;7.730;2023-03-03T08:17:53;143061.97;;;2.24;100.00
47530;BME280;33272;51.922;7.730;2023-03-03T08:20:54;143068.22;;;2.26;100.00
47530;BME280;33272;51.922;7.730;2023-03-03T08:23:22;143072.03;;;2.28;100.00
47530;BME280;33272;51.922;7.730;2023-03-03T08:25:50;143075.78;;;2.29;100.00
47530;BME280;33272;51.922;7.730;2023-03-03T08:28:18;143083.31;;;2.32;100.00
47530;BME280;33272;51.922;7.730;2023-03-03T08:30:48;143084.56;;;2.33;100.00
47530;BME280;33272;51.922;7.730;2023-03-03T08:33:16;143090.88;;;2.36;100.00
47530;BME280;33272;51.922;7.730;2023-03-03T08:35:44;143100.97;;;2.40;100.00
47530;BME280;33272;51.922;7.730;2023-03-03T08:38:12;143112.28;;;2.44;100.00
47530;BME280;33272;51.922;7.730;2023-03-03T08:40:40;143127.38;;;2.50;100.00
47530;BME280;33272;51.922;7.730;2023-03-03T08:43:07;143138.69;;;2.55;100.00
47530;BME280;33272;51.922;7.730;2023-03-03T08:45:35;143150.03;;;2.60;100.00
47530;BME280;33272;51.922;7.730;2023-03-03T08:48:04;143156.34;;;2.62;100.00
47530;BME280;33272;51.922;7.730;2023-03-03T08:50:32;143161.34;;;2.64;100.00
47530;BME280;33272;51.922;7.730;2023-03-03T08:52:59;143162.59;;;2.65;100.00
47530;BME280;33272;51.922;7.730;2023-03-03T08:55:26;143167.66;;;2.67;100.00
47530;BME280;33272;51.922;7.730;2023-03-03T08:57:53;143186.56;;;2.74;100.00
47530;BME280;33272;51.922;7.730;2023-03-03T09:00:20;143211.72;;;2.85;100.00
47530;BME280;33272;51.922;7.730;2023-03-03T09:02:48;143230.59;;;2.92;100.00
47530;BME280;33272;51.922;7.730;2023-03-03T09:05:18;143257.06;;;3.03;100.00
47530;BME280;33272;51.922;7.730;2023-03-03T09:07:47;143279.72;;;3.12;100.00
47530;BME280;33272;51.922;7.730;2023-03-03T09:10:18;143301.09;;;3.21;100.00
47530;BME280;33272;51.922;7.730;2023-03-03T09:12:47;143321.25;;;3.29;100.00
47530;BME280;33272;51.922;7.730;2023-03-03T09:15:20;143338.88;;;3.36;100.00
47530;BME280;33272;51.922;7.730;2023-03-03T09:17:49;143352.75;;;3.42;100.00
47530;BME280;33272;51.922;7.730;2023-03-03T09:20:37;143360.31;;;3.45;100.00
47530;BME280;33272;51.922;7.730;2023-03-03T09:23:30;143401.84;;;3.62;100.00
47530;BME280;33272;51.922;7.730;2023-03-03T09:26:31;143433.34;;;3.75;100.00
47530;BME280;33272;51.922;7.730;2023-03-03T09:29:23;143457.28;;;3.84;100.00
47530;BME280;33272;51.922;7.730;2023-03-03T09:31:53;143469.91;;;3.89;100.00
47530;BME280;33272;51.922;7.730;2023-03-03T09:34:23;143471.16;;;3.90;100.00
47530;BME280;33272;51.922;7.730;2023-03-03T09:36:54;143476.22;;;3.92;100.00
47530;BME280;33272;51.922;7.730;2023-03-03T09:39:25;143481.22;;;3.94;100.00
47530;BME280;33272;51.922;7.730;2023-03-03T09:45:43;143493.84;;;3.99;100.00
47530;BME280;33272;51.922;7.730;2023-03-03T09:48:37;143521.59;;;4.10;100.00
47530;BME280;33272;51.922;7.730;2023-03-03T09:54:22;143613.63;;;4.48;100.00
47530;BME280;33272;51.922;7.730;2023-03-03T09:57:02;143637.56;;;4.57;100.00
47530;BME280;33272;51.922;7.730;2023-03-03T09:59:54;143679.16;;;4.74;100.00
47530;BME280;33272;51.922;7.730;2023-03-03T10:02:42;143727.06;;;4.94;100.00
47530;BME280;33272;51.922;7.730;2023-03-03T10:05:29;143775.00;;;5.13;100.00
47530;BME280;33272;51.922;7.730;2023-03-03T10:08:21;143782.56;;;5.16;100.00
47530;BME280;33272;51.922;7.730;2023-03-03T10:11:03;143806.53;;;5.26;100.00
47530;BME280;33272;51.922;7.730;2023-03-03T10:13:48;143825.50;;;5.33;100.00
47530;BME280;33272;51.922;7.730;2023-03-03T10:16:39;143846.91;;;5.42;100.00
47530;BME280;33272;51.922;7.730;2023-03-03T10:19:23;143882.25;;;5.56;100.00
47530;BME280;33272;51.922;7.730;2023-03-03T10:22:04;143907.47;;;5.67;100.00
47530;BME280;33272;51.922;7.730;2023-03-03T10:24:41;143918.88;;;5.71;100.00
47530;BME280;33272;51.922;7.730;2023-03-03T10:27:28;143926.44;;;5.74;100.00
47530;BME280;33272;51.922;7.730;2023-03-03T10:30:09;143965.56;;;5.90;100.00
47530;BME280;33272;51.922;7.730;2023-03-03T10:32:45;144004.75;;;6.06;100.00
47530;BME280;33272;51.922;7.730;2023-03-03T10:38:49;144046.41;;;6.23;100.00
47530;BME280;33272;51.922;7.730;2023-03-03T10:41:45;144070.38;;;6.33;99.88
47530;BME280;33272;51.922;7.730;2023-03-03T10:44:42;144079.22;;;6.36;100.00
47530;BME280;33272;51.922;7.730;2023-03-03T10:47:48;144086.81;;;6.39;98.47
47530;BME280;33272;51.922;7.730;2023-03-03T10:50:29;144101.97;;;6.45;99.71
47530;BME280;33272;51.922;7.730;2023-03-03T10:53:15;144107.03;;;6.47;99.25
47530;BME280;33272;51.922;7.730;2023-03-03T10:55:56;144146.19;;;6.63;99.67
47530;BME280;33272;51.922;7.730;2023-03-03T10:58:45;144175.25;;;6.75;99.42
47530;BME280;33272;51.922;7.730;2023-03-03T11:01:25;144191.66;;;6.82;98.21
47530;BME280;33272;51.922;7.730;2023-03-03T11:04:24;144201.75;;;6.86;97.51
47530;BME280;33272;51.922;7.730;2023-03-03T11:07:05;144248.50;;;7.05;98.52
47530;BME280;33272;51.922;7.730;2023-03-03T11:10:03;144268.75;;;7.13;96.97
47530;BME280;33272;51.922;7.730;2023-03-03T11:12:45;144275.03;;;7.15;96.66
47530;BME280;33272;51.922;7.730;2023-03-03T11:15:32;144276.34;;;7.16;97.38
47530;BME280;33272;51.922;7.730;2023-03-03T11:18:24;144257.34;;;7.08;97.25
47530;BME280;33272;51.922;7.730;2023-03-03T11:21:02;144219.44;;;6.93;96.92
47530;BME280;33272;51.922;7.730;2023-03-03T11:24:14;144199.25;;;6.85;95.88
47530;BME280;33272;51.922;7.730;2023-03-03T11:27:08;144235.84;;;7.00;98.04
47530;BME280;33272;51.922;7.730;2023-03-03T11:29:59;144259.91;;;7.09;96.43
47530;BME280;33272;51.922;7.730;2023-03-03T11:32:40;144280.09;;;7.17;96.39
47530;BME280;33272;51.922;7.730;2023-03-03T11:35:23;144291.50;;;7.22;96.61
47530;BME280;33272;51.922;7.730;2023-03-03T11:38:44;144280.09;;;7.17;92.60
47530;BME280;33272;51.922;7.730;2023-03-03T11:41:25;144301.59;;;7.26;96.15
47530;BME280;33272;51.922;7.730;2023-03-03T11:43:59;144290.19;;;7.22;95.90
47530;BME280;33272;51.922;7.730;2023-03-03T11:46:34;144262.41;;;7.10;94.81
47530;BME280;33272;51.922;7.730;2023-03-03T11:49:08;144281.34;;;7.18;96.25
47530;BME280;33272;51.922;7.730;2023-03-03T11:51:50;144307.91;;;7.29;95.02
47530;BME280;33272;51.922;7.730;2023-03-03T11:54:24;144343.28;;;7.43;94.92
47530;BME280;33272;51.922;7.730;2023-03-03T11:57:04;144345.84;;;7.44;93.60
47530;BME280;33272;51.922;7.730;2023-03-03T11:59:58;144357.19;;;7.49;94.08
47530;BME280;33272;51.922;7.730;2023-03-03T12:02:57;144340.78;;;7.42;92.91
47530;BME280;33272;51.922;7.730;2023-03-03T12:05:38;144335.69;;;7.40;92.88
47530;BME280;33272;51.922;7.730;2023-03-03T12:11:15;144373.63;;;7.55;94.63
47530;BME280;33272;51.922;7.730;2023-03-03T12:13:55;144411.56;;;7.71;94.58
47530;BME280;33272;51.922;7.730;2023-03-03T12:16:38;144448.25;;;7.85;93.38
47530;BME280;33272;51.922;7.730;2023-03-03T12:19:33;144419.16;;;7.74;87.64
47530;BME280;33272;51.922;7.730;2023-03-03T12:22:15;144386.28;;;7.60;90.39
47530;BME280;33272;51.922;7.730;2023-03-03T12:25:21;144349.63;;;7.46;89.95
47530;BME280;33272;51.922;7.730;2023-03-03T12:27:55;144379.97;;;7.58;93.26
47530;BME280;33272;51.922;7.730;2023-03-03T12:30:56;144398.91;;;7.65;93.72
47530;BME280;33272;51.922;7.730;2023-03-03T12:33:38;144381.22;;;7.58;93.19
47530;BME280;33272;51.922;7.730;2023-03-03T12:36:24;144396.38;;;7.64;92.77
47530;BME280;33272;51.922;7.730;2023-03-03T12:39:01;144393.88;;;7.63;93.74
47530;BME280;33272;51.922;7.730;2023-03-03T12:41:41;144403.97;;;7.68;92.54
47530;BME280;33272;51.922;7.730;2023-03-03T12:44:17;144385.03;;;7.60;91.68
47530;BME280;33272;51.922;7.730;2023-03-03T12:46:55;144374.88;;;7.56;92.45
47530;BME280;33272;51.922;7.730;2023-03-03T12:49:30;144354.69;;;7.48;92.21
47530;BME280;33272;51.922;7.730;2023-03-03T12:52:12;144338.25;;;7.41;92.58
47530;BME280;33272;51.922;7.730;2023-03-03T12:54:59;144339.50;;;7.41;91.96
47530;BME280;33272;51.922;7.730;2023-03-03T12:57:36;144328.13;;;7.37;91.94
47530;BME280;33272;51.922;7.730;2023-03-03T13:00:23;144285.16;;;7.19;90.46
47530;BME280;33272;51.922;7.730;2023-03-03T13:03:00;144307.91;;;7.29;91.60
47530;BME280;33272;51.922;7.730;2023-03-03T13:05:41;144331.94;;;7.38;91.82
47530;BME280;33272;51.922;7.730;2023-03-03T13:08:25;144334.44;;;7.39;92.18
47530;BME280;33272;51.922;7.730;2023-03-03T13:11:08;144314.19;;;7.31;91.08
47530;BME280;33272;51.922;7.730;2023-03-03T13:13:48;144254.84;;;7.07;90.79
47530;BME280;33272;51.922;7.730;2023-03-03T13:16:24;144191.66;;;6.82;89.47
47530;BME280;33272;51.922;7.730;2023-03-03T13:18:57;144125.94;;;6.55;92.12
47530;BME280;33272;51.922;7.730;2023-03-03T13:21:30;144104.50;;;6.46;92.84
47530;BME280;33272;51.922;7.730;2023-03-03T13:24:06;144114.59;;;6.50;93.34
47530;BME280;33272;51.922;7.730;2023-03-03T13:26:43;144138.59;;;6.60;93.51
47530;BME280;33272;51.922;7.730;2023-03-03T13:29:19;144176.50;;;6.76;93.87
47530;BME280;33272;51.922;7.730;2023-03-03T13:31:52;144206.84;;;6.88;93.22
47530;BME280;33272;51.922;7.730;2023-03-03T13:34:31;144210.59;;;6.89;91.99
47530;BME280;33272;51.922;7.730;2023-03-03T13:37:05;144201.75;;;6.86;91.72
47530;BME280;33272;51.922;7.730;2023-03-03T13:39:41;144196.69;;;6.84;92.50
47530;BME280;33272;51.922;7.730;2023-03-03T13:42:22;144172.69;;;6.74;92.10
47530;BME280;33272;51.922;7.730;2023-03-03T13:44:54;144201.75;;;6.86;92.80